WetterOnline ( https://www.wetteronline.de )

Wetter aktuell Wallerfangen

Aktuelles Wetter: Berus (367m)

6-stündlich | Neueste Meldungen
Ortszeit Temperatur Wetter
Mi, 17.04. 8:00 3.1° C bedeckt
Mi, 17.04. 2:00 5.1° C Sprühregen
Di, 16.04. 20:00 5.1° C wolkig
Di, 16.04. 14:00 9.0° C bewölkt
Di, 16.04. 8:00 3.9° C Sprühregen
Di, 16.04. 2:00 4.2° C bewölkt
Mo, 15.04. 20:00 3.8° C leichter Regen
Mo, 15.04. 14:00 14.3° C leicht bewölkt
Ortszeit Temperatur Wetter
Mi, 17.04. 8:00 3.1° C bedeckt
Mi, 17.04. 7:40 3.0° C bedeckt
Mi, 17.04. 7:30 2.9° C bewölkt
Mi, 17.04. 7:20 2.9° C bewölkt
Mi, 17.04. 7:10 3.0° C wolkig
Mi, 17.04. 7:00 3.3° C wolkig
Mi, 17.04. 6:50 3.3° C wolkig
Mi, 17.04. 6:30 4.0° C bedeckt
Mi, 17.04. 6:00 4.2° C Sprühregen
Mi, 17.04. 5:30 4.3° C bedeckt
Mi, 17.04. 5:00 4.4° C leichter Regen
Ortszeit Relative Feuchte Sichtweite
Mi, 17.04. 8:00 90% 35 km
Mi, 17.04. 2:00 95% 21 km
Di, 16.04. 20:00 92% >70 km
Di, 16.04. 14:00 77% >70 km
Di, 16.04. 8:00 93% 23 km
Di, 16.04. 2:00 92% 30 km
Mo, 15.04. 20:00 94% 11 km
Mo, 15.04. 14:00 46% 45 km
Ortszeit Relative Feuchte Sichtweite
Mi, 17.04. 8:00 90% 35 km
Mi, 17.04. 7:40 91% -
Mi, 17.04. 7:30 93% 24 km
Mi, 17.04. 7:20 93% -
Mi, 17.04. 7:10 94% -
Mi, 17.04. 7:00 93% 22 km
Mi, 17.04. 6:50 93% -
Mi, 17.04. 6:30 92% 25 km
Mi, 17.04. 6:00 93% 17 km
Mi, 17.04. 5:30 93% 26 km
Mi, 17.04. 5:00 92% 22 km
Ortszeit Niederschlagsmenge Niederschlagsart
Mi, 17.04. 8:00 0.1 l/m2 in 12 Std. Regen
Mi, 17.04. 2:00 0.1 l/m2 in 6 Std. Regen
Di, 16.04. 20:00 6 l/m2 in 12 Std. Regen
Di, 16.04. 14:00 3 l/m2 in 6 Std. Regen
Di, 16.04. 8:00 0.3 l/m2 in 12 Std. Regen
Di, 16.04. 2:00 0.3 l/m2 in 6 Std. Regen
Mo, 15.04. 20:00 3 l/m2 in 12 Std. Regen
Mo, 15.04. 14:00 0.1 l/m2 in 6 Std. Regen
Ortszeit Niederschlagsmenge Niederschlagsart
Mi, 17.04. 8:00 0.0 l/m2 in 1 Std. Regen
Mi, 17.04. 7:40 keine Meldung -
Mi, 17.04. 7:30 0.0 l/m2 in 30 Min -
Mi, 17.04. 7:20 keine Meldung -
Mi, 17.04. 7:10 keine Meldung -
Mi, 17.04. 7:00 <0.05 l/m2 in 1 Std. Sprühregen
Mi, 17.04. 6:50 keine Meldung -
Mi, 17.04. 6:30 <0.05 l/m2 in 30 Min Schnee
Mi, 17.04. 6:00 <0.05 l/m2 in 1 Std. Regen
Mi, 17.04. 5:30 <0.05 l/m2 in 30 Min Schneeregen
Mi, 17.04. 5:00 <0.05 l/m2 in 1 Std. Regen
Ortszeit Stärke Spitze Richtung
km/h Bft. km/h Grad Sektor
Mi, 17.04. 8:00 14 3 29 330° NW
Mi, 17.04. 2:00 13 3 28 300° NW
Di, 16.04. 20:00 14 3 61 260° W
Di, 16.04. 14:00 24 4 63 270° W
Di, 16.04. 8:00 28 4 56 250° W
Di, 16.04. 2:00 22 4 39 250° W
Mo, 15.04. 20:00 20 4 76 270° W
Mo, 15.04. 14:00 35 5 65 260° W
Ortszeit Stärke Spitze Richtung
km/h Bft. km/h Grad Sektor
Mi, 17.04. 8:00 14 3 29 330° NW
Mi, 17.04. 7:40 13 3 - 320° NW
Mi, 17.04. 7:30 14 3 29 320° NW
Mi, 17.04. 7:20 14 3 - 320° NW
Mi, 17.04. 7:10 15 3 - 310° NW
Mi, 17.04. 7:00 13 3 22 320° NW
Mi, 17.04. 6:50 13 3 - 320° NW
Mi, 17.04. 6:30 11 2 22 320° NW
Mi, 17.04. 6:00 9 2 24 310° NW
Mi, 17.04. 5:30 11 2 25 330° NW
Mi, 17.04. 5:00 13 3 24 330° NW
Ortszeit Untergrenze Bedeckung Gattung
total tief tief mittel hoch
Mi, 17.04. 8:00 4200 m 8/8 8/8 - - -
Mi, 17.04. 2:00 210 m 8/8 8/8 - - -
Di, 16.04. 20:00 780 m 8/8 1/8 - - -
Di, 16.04. 14:00 630 m 7/8 7/8 - - -
Di, 16.04. 8:00 300 m 7/8 7/8 - - -
Di, 16.04. 2:00 900 m 8/8 7/8 - - -
Mo, 15.04. 20:00 270 m 7/8 7/8 - - -
Mo, 15.04. 14:00 1380 m 3/8 3/8 - - -
Ortszeit Bedeckungsgrad in Achtel und Wolkenuntergrenze
Mi, 17.04. 8:00 6(4200m) 8(5400m)
Mi, 17.04. 7:40 8
Mi, 17.04. 7:30 7(5400m)
Mi, 17.04. 7:20 7(5400m)
Mi, 17.04. 7:10 6
Mi, 17.04. 7:00 4(1500m) 6(1800m)
Mi, 17.04. 6:50 4(1500m) 6(1800m)
Mi, 17.04. 6:30 2(390m) 6(1050m) 8(1800m)
Mi, 17.04. 6:00 2(480m) 7(900m) 8(1170m)
Mi, 17.04. 5:30 1(570m) 5(870m) 8(1110m)
Mi, 17.04. 5:00 2(360m) 7(1170m) 8(1800m)
Ortszeit Luftdruck NN (hPa) Tendenz (hPa in 3 Std.)
Mi, 17.04. 8:00 1013 + 1,3
Mi, 17.04. 2:00 1010 + 0,1
Di, 16.04. 20:00 1009 + 0,8
Di, 16.04. 14:00 1008 + 0,4
Di, 16.04. 8:00 1009 - 0,4
Di, 16.04. 2:00 1010 - 0,6
Mo, 15.04. 20:00 1010 + 1,5
Mo, 15.04. 14:00 1010 - 2,9
Ortszeit Luftdruck NN (hPa) Tendenz (hPa in 3 Std.)
Mi, 17.04. 8:00 1013 + 1,3
Mi, 17.04. 7:40 1013 keine Meldung
Mi, 17.04. 7:30 1013 + 1,3
Mi, 17.04. 7:20 1013 keine Meldung
Mi, 17.04. 7:10 1012 keine Meldung
Mi, 17.04. 7:00 1012 + 1,2
Mi, 17.04. 6:50 1012 keine Meldung
Mi, 17.04. 6:30 1012 + 0,8
Mi, 17.04. 6:00 1012 + 0,7
Mi, 17.04. 5:30 1011 + 0,5
Mi, 17.04. 5:00 1011 + 0,5
Ortszeit Schneehöhe (cm)
Mi, 17.04. 8:00 0
Mi, 17.04. 2:00 0
Di, 16.04. 20:00 0
Di, 16.04. 14:00 0
Di, 16.04. 8:00 0
Di, 16.04. 2:00 0
Mo, 15.04. 20:00 0
Mo, 15.04. 14:00 0
Ortszeit Schneehöhe (cm)
Mi, 17.04. 8:00 0
Mi, 17.04. 7:40 -
Mi, 17.04. 7:30 0
Mi, 17.04. 7:20 0
Mi, 17.04. 7:10 -
Mi, 17.04. 7:00 0
Mi, 17.04. 6:50 0
Mi, 17.04. 6:30 0
Mi, 17.04. 6:00 0
Mi, 17.04. 5:30 0
Mi, 17.04. 5:00 0
Link zu dieser Seite / Seite empfehlen

Das Wetter in ...